Time;durP1;ratioP1;P1;durP2;ratioP2;P2;SDS_P1;SDS_P2;PMS_P1;PMS_P2;Temp;Humidity;BMP_temperature;BMP_pressure;BME280_temperature;BME280_humidity;BME280_pressure;Samples;Min_cycle;Max_cycle;Signal;HPM_P1;HPM_P2
2023/03/20 00:03:46;;;;;;;5.40;4.47;;;;;;;13.35;60.64;98069.56;8379312;28;20226;-67
2023/03/20 00:07:50;;;;;;;4.60;4.20;;;;;;;13.44;60.37;98071.66;8378700;28;20254;-68
2023/03/20 00:11:54;;;;;;;4.30;3.90;;;;;;;13.39;60.94;98075.44;8379460;28;20234;-68
2023/03/20 00:15:59;;;;;;;5.30;4.00;;;;;;;13.42;61.44;98075.25;8379704;28;20226;-68
2023/03/20 00:20:04;;;;;;;4.03;3.67;;;;;;;13.55;61.32;98070.22;8379558;28;20238;-68
2023/03/20 00:24:07;;;;;;;3.90;3.60;;;;;;;13.48;61.25;98083.56;8379378;28;20232;-68
2023/03/20 00:28:36;;;;;;;4.50;3.80;;;;;;;13.50;60.56;98073.09;8378970;28;20235;-67
2023/03/20 00:32:38;;;;;;;4.60;3.80;;;;;;;13.47;60.43;98076.69;8379325;28;20418;-68
2023/03/20 00:36:43;;;;;;;5.07;3.83;;;;;;;13.54;60.56;98069.41;8378618;28;20250;-68
2023/03/20 00:40:46;;;;;;;3.70;3.40;;;;;;;13.47;60.74;98062.84;8379177;28;20233;-68
2023/03/20 00:44:52;;;;;;;4.20;3.53;;;;;;;13.38;60.93;98064.16;8379091;28;20233;-68
2023/03/20 00:48:54;;;;;;;3.57;3.27;;;;;;;13.43;60.81;98069.13;8378943;28;20234;-69
2023/03/20 00:52:59;;;;;;;3.50;3.20;;;;;;;13.53;60.04;98070.31;8378829;28;20427;-68
2023/03/20 00:57:04;;;;;;;5.50;3.10;;;;;;;13.55;60.26;98065.03;8378721;28;20256;-68
2023/03/20 01:01:07;;;;;;;3.50;2.97;;;;;;;13.54;60.10;98059.00;8378621;28;20231;-68
2023/03/20 01:05:11;;;;;;;3.00;2.80;;;;;;;13.44;60.45;98053.44;8378568;28;20231;-68
2023/03/20 01:09:17;;;;;;;4.23;3.43;;;;;;;13.46;60.26;98058.53;8378307;28;20399;-68
2023/03/20 01:13:22;;;;;;;3.60;3.30;;;;;;;13.37;60.64;98064.28;8378543;28;20235;-67
2023/03/20 01:17:28;;;;;;;3.63;3.10;;;;;;;13.47;60.37;98066.28;8378605;28;20230;-68
2023/03/20 01:21:31;;;;;;;3.53;3.23;;;;;;;13.47;60.18;98060.25;8383650;28;20229;-68
2023/03/20 01:25:36;;;;;;;3.50;3.20;;;;;;;13.46;60.16;98067.22;8384565;28;20241;-67
2023/03/20 01:29:39;;;;;;;4.50;3.23;;;;;;;13.53;60.01;98066.88;8384396;28;20229;-68
2023/03/20 01:33:41;;;;;;;3.60;3.20;;;;;;;13.44;60.41;98071.66;8383705;28;20526;-67
2023/03/20 01:37:45;;;;;;;3.70;3.17;;;;;;;13.43;60.22;98069.97;8384104;28;20236;-68
2023/03/20 01:41:50;;;;;;;3.40;3.20;;;;;;;13.42;60.61;98068.31;8384053;28;20264;-68
2023/03/20 01:45:58;;;;;;;4.80;3.37;;;;;;;13.35;60.48;98077.34;8383892;28;20351;-68
2023/03/20 01:50:29;;;;;;;3.30;3.00;;;;;;;13.37;60.30;98075.50;8383740;28;20417;-68
2023/03/20 01:54:35;;;;;;;4.03;3.20;;;;;;;13.36;60.49;98073.81;8383470;28;20547;-67
2023/03/20 01:58:42;;;;;;;3.40;3.10;;;;;;;13.37;60.09;98078.13;8383511;28;20239;-68
2023/03/20 02:02:47;;;;;;;3.20;2.90;;;;;;;13.17;60.71;98060.94;8383120;28;20238;-68
2023/03/20 02:06:50;;;;;;;3.17;2.87;;;;;;;13.32;60.35;98087.91;8383255;28;20549;-68
2023/03/20 02:10:53;;;;;;;4.20;3.50;;;;;;;13.20;60.57;98096.34;8382779;28;20235;-68
2023/03/20 02:15:00;;;;;;;3.27;2.97;;;;;;;13.33;60.22;98093.94;8382884;28;20238;-68
2023/03/20 02:19:04;;;;;;;3.20;2.90;;;;;;;13.35;60.28;98092.97;8382793;28;20230;-67
2023/03/20 02:23:39;;;;;;;3.33;3.03;;;;;;;13.36;60.12;98099.81;8382541;28;20254;-68
2023/03/20 02:27:54;;;;;;;3.30;3.00;;;;;;;13.30;60.87;98101.00;8382017;28;20247;-68
2023/03/20 02:32:26;;;;;;;3.80;3.40;;;;;;;13.39;60.06;98098.84;8381421;28;20235;-68
2023/03/20 02:36:51;;;;;;;3.80;3.50;;;;;;;13.31;60.54;98104.47;8379938;28;20226;-68
2023/03/20 02:40:59;;;;;;;3.30;3.00;;;;;;;13.32;60.36;98097.50;8381745;28;20223;-68
2023/03/20 02:45:08;;;;;;;4.60;3.30;;;;;;;13.24;60.39;98095.25;8381975;28;20245;-67
2023/03/20 02:49:19;;;;;;;4.13;3.50;;;;;;;13.17;60.58;98097.34;8381907;28;20269;-67
2023/03/20 02:53:31;;;;;;;3.90;3.40;;;;;;;13.13;60.26;98084.59;8381663;28;20236;-67
2023/03/20 02:57:43;;;;;;;4.10;3.63;;;;;;;13.11;60.74;98092.47;8381224;28;20252;-68
2023/03/20 03:01:50;;;;;;;3.77;3.43;;;;;;;13.16;60.75;98090.47;8381101;28;20278;-68
2023/03/20 03:05:59;;;;;;;3.80;3.37;;;;;;;12.40;60.84;97980.97;8381303;28;20703;-68
2023/03/20 03:10:05;;;;;;;4.80;4.30;;;;;;;13.02;60.82;98103.34;8381043;28;20242;-68
2023/03/20 03:14:14;;;;;;;4.90;4.40;;;;;;;13.04;60.31;98098.91;8381116;28;20247;-68
2023/03/20 03:18:19;;;;;;;4.80;4.40;;;;;;;12.98;60.56;98105.25;8381042;28;20223;-68
2023/03/20 03:22:23;;;;;;;5.23;4.47;;;;;;;12.95;60.91;98112.41;8380979;28;20418;-67
2023/03/20 03:26:28;;;;;;;4.97;4.50;;;;;;;13.02;60.32;98109.41;8380944;28;20229;-68
2023/03/20 03:30:34;;;;;;;4.97;4.57;;;;;;;13.04;60.20;98102.38;8380743;28;20257;-67
2023/03/20 03:34:37;;;;;;;4.93;4.53;;;;;;;13.02;60.18;98103.34;8380548;28;20232;-68
2023/03/20 03:38:44;;;;;;;5.00;4.50;;;;;;;12.79;60.04;98097.56;8380331;28;20221;-68
2023/03/20 03:42:53;;;;;;;5.37;4.90;;;;;;;12.94;59.92;98118.50;8379872;28;20404;-69
2023/03/20 03:47:00;;;;;;;4.97;4.57;;;;;;;12.89;59.83;98105.75;8380159;28;20231;-67
2023/03/20 03:51:07;;;;;;;5.40;4.90;;;;;;;12.80;59.93;98101.03;8380088;28;20229;-67
2023/03/20 03:55:12;;;;;;;6.00;5.50;;;;;;;12.84;60.40;98120.75;8379902;28;20241;-67
2023/03/20 03:59:20;;;;;;;5.80;5.30;;;;;;;12.81;60.15;98113.94;8379876;28;20234;-67
2023/03/20 04:03:29;;;;;;;6.13;5.63;;;;;;;12.74;60.15;98093.53;8379697;28;20245;-67
2023/03/20 04:07:32;;;;;;;6.10;5.60;;;;;;;12.82;60.06;98114.78;8379566;28;20283;-68
2023/03/20 04:11:35;;;;;;;5.73;5.33;;;;;;;12.86;59.54;98121.50;8379120;28;20468;-67
2023/03/20 04:15:38;;;;;;;6.73;6.10;;;;;;;12.68;59.59;98123.28;8379524;28;20226;-69
2023/03/20 04:19:43;;;;;;;6.30;5.80;;;;;;;12.68;59.67;98118.09;8379676;28;20271;-67
2023/03/20 04:23:45;;;;;;;6.67;6.07;;;;;;;12.55;60.05;98123.06;8378764;28;20439;-68
2023/03/20 04:27:49;;;;;;;6.53;6.03;;;;;;;12.56;60.23;98122.13;8379237;28;20225;-68
2023/03/20 04:31:51;;;;;;;6.60;6.00;;;;;;;12.60;60.03;98128.84;8378986;28;20241;-67
2023/03/20 04:35:56;;;;;;;6.63;6.07;;;;;;;12.59;59.79;98126.34;8379107;28;20236;-67
2023/03/20 04:39:58;;;;;;;7.03;6.53;;;;;;;12.58;60.19;98130.66;8378979;28;20240;-68
2023/03/20 04:44:01;;;;;;;6.90;6.40;;;;;;;12.55;60.11;98132.59;8378671;28;20315;-68
2023/03/20 04:48:04;;;;;;;7.43;6.83;;;;;;;12.59;60.09;98134.97;8378964;28;20225;-67
2023/03/20 04:52:10;;;;;;;8.13;7.50;;;;;;;12.57;60.00;98133.38;8378932;28;20229;-67
2023/03/20 04:56:13;;;;;;;7.13;6.53;;;;;;;12.64;59.99;98143.38;8383314;28;20229;-68
2023/03/20 05:00:18;;;;;;;8.47;7.50;;;;;;;12.58;60.29;98137.63;8385281;28;20350;-68
2023/03/20 05:04:22;;;;;;;8.10;7.40;;;;;;;12.65;60.14;98134.66;8385127;28;20228;-68
2023/03/20 05:08:29;;;;;;;9.00;8.20;;;;;;;12.69;60.36;98137.94;8384835;28;20259;-67
2023/03/20 05:12:33;;;;;;;8.00;7.40;;;;;;;12.64;60.72;98139.91;8384684;28;20540;-67
2023/03/20 05:16:35;;;;;;;9.13;8.40;;;;;;;12.66;60.62;98151.06;8384815;28;20224;-68
2023/03/20 05:20:38;;;;;;;10.03;9.17;;;;;;;12.65;60.67;98154.59;8384605;28;20225;-69
2023/03/20 05:24:42;;;;;;;10.13;9.33;;;;;;;12.62;61.11;98158.22;8384004;28;20227;-68
2023/03/20 05:28:45;;;;;;;10.30;9.50;;;;;;;12.66;60.67;98151.94;8383891;28;20248;-68
2023/03/20 05:32:51;;;;;;;9.80;9.00;;;;;;;12.77;60.59;98163.53;8384113;28;20230;-68
2023/03/20 05:36:54;;;;;;;9.77;8.87;;;;;;;12.81;60.36;98162.47;8383331;28;20275;-67
2023/03/20 05:40:59;;;;;;;10.53;9.63;;;;;;;12.75;60.60;98161.00;8384105;28;20537;-68
2023/03/20 05:45:03;;;;;;;10.93;9.93;;;;;;;12.82;60.42;98159.78;8383891;28;20236;-67
2023/03/20 05:49:05;;;;;;;9.03;8.23;;;;;;;12.97;60.05;98175.53;8384082;28;20426;-67
2023/03/20 05:53:08;;;;;;;9.53;8.60;;;;;;;12.88;60.41;98177.66;8383528;28;20237;-68
2023/03/20 05:57:13;;;;;;;9.63;8.83;;;;;;;12.87;60.59;98190.72;8383628;28;20226;-68
2023/03/20 06:01:20;;;;;;;10.33;9.30;;;;;;;13.00;60.43;98198.75;8383497;28;20238;-68
2023/03/20 06:05:22;;;;;;;9.90;9.20;;;;;;;13.00;60.40;98202.19;8382070;28;20232;-68
2023/03/20 06:09:25;;;;;;;10.37;9.57;;;;;;;13.04;60.24;98205.50;8383268;28;20221;-68
2023/03/20 06:13:32;;;;;;;9.80;8.93;;;;;;;13.01;60.38;98214.28;8383159;28;20253;-68
2023/03/20 06:17:35;;;;;;;9.57;8.87;;;;;;;13.01;60.61;98210.88;8383610;28;20233;-68
2023/03/20 06:21:38;;;;;;;10.77;9.97;;;;;;;13.01;60.63;98213.47;8383299;28;20226;-68
2023/03/20 06:25:41;;;;;;;9.83;9.03;;;;;;;13.04;60.64;98208.09;8382667;28;20228;-68
2023/03/20 06:29:45;;;;;;;9.70;8.90;;;;;;;13.01;61.04;98206.50;8382586;28;20238;-68
2023/03/20 06:33:48;;;;;;;9.83;8.80;;;;;;;13.17;60.17;98211.75;8382604;28;20237;-69
2023/03/20 06:37:51;;;;;;;9.87;9.10;;;;;;;13.16;60.30;98219.66;8382469;28;20241;-69
2023/03/20 06:41:54;;;;;;;10.13;9.33;;;;;;;13.11;60.24;98217.25;8382379;28;20415;-69
2023/03/20 06:45:58;;;;;;;8.97;8.27;;;;;;;13.14;60.19;98219.72;8381474;28;20233;-69
2023/03/20 06:50:01;;;;;;;9.27;8.53;;;;;;;13.20;60.34;98210.78;8381626;28;20534;-68
2023/03/20 06:54:04;;;;;;;9.43;8.73;;;;;;;12.81;61.85;98222.25;8381160;28;20225;-68
2023/03/20 06:58:07;;;;;;;9.33;8.63;;;;;;;13.13;60.25;98212.81;8381226;28;20237;-68
2023/03/20 07:02:11;;;;;;;8.03;7.43;;;;;;;13.25;60.10;98206.16;8380999;28;20237;-68
2023/03/20 07:06:14;;;;;;;8.03;7.33;;;;;;;13.18;60.00;98197.00;8381173;28;20234;-68
2023/03/20 07:10:18;;;;;;;7.77;7.17;;;;;;;13.11;60.86;98212.06;8381370;28;20238;-69
2023/03/20 07:14:21;;;;;;;8.10;7.03;;;;;;;13.41;59.79;98214.06;8381249;28;20230;-69
2023/03/20 07:18:26;;;;;;;8.07;7.37;;;;;;;13.37;59.68;98209.94;8380893;28;20222;-69
2023/03/20 07:22:30;;;;;;;7.20;6.70;;;;;;;13.25;60.21;98212.22;8381029;28;20221;-68
2023/03/20 07:26:32;;;;;;;7.03;6.50;;;;;;;13.39;60.02;98221.94;8380952;28;20232;-68
2023/03/20 07:30:35;;;;;;;7.87;6.30;;;;;;;13.32;60.47;98224.94;8380636;28;20234;-68
2023/03/20 07:34:39;;;;;;;6.17;5.77;;;;;;;13.29;59.75;98223.31;8380631;28;20276;-68
2023/03/20 07:38:42;;;;;;;6.80;6.30;;;;;;;13.36;60.19;98206.47;8379977;28;20229;-68
2023/03/20 07:42:46;;;;;;;7.47;6.17;;;;;;;13.43;59.79;98223.44;8380263;28;20552;-68
2023/03/20 07:46:49;;;;;;;6.10;5.60;;;;;;;13.63;59.45;98229.38;8380289;28;20238;-69
2023/03/20 07:50:55;;;;;;;6.57;5.93;;;;;;;13.49;59.79;98235.31;8380204;28;20464;-69
2023/03/20 07:54:58;;;;;;;6.30;5.70;;;;;;;13.69;59.04;98218.66;8379751;28;20229;-70
2023/03/20 07:59:01;;;;;;;5.57;5.17;;;;;;;13.75;58.97;98225.31;8379627;28;20246;-68
2023/03/20 08:03:04;;;;;;;5.90;5.50;;;;;;;13.72;58.87;98220.25;8379724;28;20217;-69
2023/03/20 08:07:08;;;;;;;5.67;5.27;;;;;;;13.79;59.20;98227.66;8380007;28;20232;-69
2023/03/20 08:11:11;;;;;;;5.53;5.13;;;;;;;13.90;58.96;98234.91;8379738;28;20255;-69
2023/03/20 08:15:14;;;;;;;5.50;5.10;;;;;;;13.92;58.72;98227.84;8379317;28;20546;-69
2023/03/20 08:19:17;;;;;;;5.60;5.20;;;;;;;13.51;59.72;98202.25;8379705;28;20227;-68
2023/03/20 08:23:21;;;;;;;5.73;5.33;;;;;;;13.74;59.06;98206.22;8379423;28;20421;-68
2023/03/20 08:27:24;;;;;;;5.60;5.20;;;;;;;13.85;59.09;98229.09;8379383;28;20230;-69
2023/03/20 08:31:27;;;;;;;5.43;5.00;;;;;;;14.07;58.61;98226.19;8378792;28;20549;-69
2023/03/20 08:35:30;;;;;;;5.37;4.97;;;;;;;14.08;58.43;98230.44;8379223;28;20527;-69
2023/03/20 08:39:38;;;;;;;6.10;5.30;;;;;;;14.06;58.42;98230.53;8378955;28;20523;-69
2023/03/20 08:43:41;;;;;;;5.90;5.40;;;;;;;14.24;57.99;98230.44;8379369;28;20231;-68
2023/03/20 08:47:47;;;;;;;5.73;5.33;;;;;;;14.36;57.83;98234.97;8378688;28;20234;-68
2023/03/20 08:51:50;;;;;;;5.57;5.17;;;;;;;14.24;57.83;98227.84;8379022;28;20565;-68
2023/03/20 08:55:55;;;;;;;6.00;5.50;;;;;;;14.54;57.19;98242.69;8378795;28;20248;-68
2023/03/20 08:59:58;;;;;;;5.20;4.70;;;;;;;14.73;56.80;98251.19;8378620;28;20239;-68
2023/03/20 09:04:01;;;;;;;5.60;5.20;;;;;;;14.56;57.09;98239.06;8378746;28;20265;-68
2023/03/20 09:08:07;;;;;;;5.97;5.37;;;;;;;14.63;56.76;98248.25;8378630;28;20426;-68
2023/03/20 09:12:11;;;;;;;6.07;5.47;;;;;;;14.70;56.74;98246.16;8378532;28;20228;-68
2023/03/20 09:16:13;;;;;;;6.10;5.70;;;;;;;14.59;56.91;98246.75;8378568;28;20232;-68
2023/03/20 09:20:16;;;;;;;6.13;5.70;;;;;;;14.65;56.37;98250.78;8378788;28;20507;-68
2023/03/20 09:24:19;;;;;;;6.03;5.63;;;;;;;14.89;56.79;98251.16;8378545;28;20232;-68
2023/03/20 09:28:24;;;;;;;6.40;5.90;;;;;;;14.59;56.64;98251.97;8378600;28;20247;-69
2023/03/20 09:32:27;;;;;;;6.13;5.63;;;;;;;14.73;56.57;98266.81;8378434;28;20232;-69
2023/03/20 09:36:30;;;;;;;6.10;5.50;;;;;;;14.70;56.88;98259.19;8378337;28;20231;-69
2023/03/20 09:40:52;;;;;;;5.37;4.97;;;;;;;14.67;55.95;98261.97;8380076;28;20221;-68
2023/03/20 09:45:05;;;;;;;5.80;5.30;;;;;;;14.89;55.72;98264.22;8383770;28;20430;-68
2023/03/20 09:49:13;;;;;;;6.37;5.80;;;;;;;14.54;56.37;98245.31;8384016;28;20228;-68
2023/03/20 09:53:20;;;;;;;6.40;5.80;;;;;;;14.64;56.82;98265.59;8383771;28;20240;-69
2023/03/20 09:57:24;;;;;;;5.80;5.40;;;;;;;14.80;56.44;98272.53;8383711;28;20513;-68
2023/03/20 10:01:33;;;;;;;5.63;5.13;;;;;;;14.91;58.60;98270.16;8383719;28;20252;-70
2023/03/20 10:05:39;;;;;;;3.30;2.90;;;;;;;16.23;64.65;98271.91;8383180;28;20225;-70
2023/03/20 10:09:44;;;;;;;4.57;4.23;;;;;;;17.17;58.20;98263.28;8382873;28;20233;-69
2023/03/20 10:14:02;;;;;;;4.00;3.70;;;;;;;17.23;54.77;98264.66;8383551;28;20487;-70
2023/03/20 10:18:11;;;;;;;4.73;3.23;;;;;;;17.04;51.19;98258.03;8383449;28;20231;-70
2023/03/20 10:22:21;;;;;;;4.00;3.67;;;;;;;17.05;52.27;98271.94;8383018;28;20437;-70
2023/03/20 10:26:24;;;;;;;3.53;3.07;;;;;;;17.35;51.30;98261.22;8382934;28;20536;-71
2023/03/20 10:30:35;;;;;;;4.80;4.43;;;;;;;16.98;48.89;98272.38;8382761;28;20238;-70
2023/03/20 10:34:53;;;;;;;4.47;4.17;;;;;;;15.95;50.70;98270.16;8382847;28;20231;-70
2023/03/20 10:38:59;;;;;;;5.17;4.67;;;;;;;15.77;51.93;98253.84;8382066;28;20229;-70
2023/03/20 10:43:06;;;;;;;4.90;4.50;;;;;;;15.56;52.60;98269.84;8382404;28;20236;-70
2023/03/20 10:47:10;;;;;;;5.40;5.00;;;;;;;16.06;51.32;98267.72;8381103;28;20398;-69
2023/03/20 10:51:18;;;;;;;4.30;3.90;;;;;;;15.52;53.10;98264.91;8381257;28;20229;-70
2023/03/20 10:55:24;;;;;;;4.60;4.20;;;;;;;15.31;53.52;98269.63;8381418;28;20232;-70
2023/03/20 10:59:28;;;;;;;4.93;4.50;;;;;;;15.77;52.08;98248.63;8380637;28;20582;-71
2023/03/20 11:03:33;;;;;;;4.50;4.20;;;;;;;15.39;53.69;98260.41;8381804;28;20243;-70
2023/03/20 11:07:40;;;;;;;4.63;4.20;;;;;;;15.34;53.89;98261.59;8381424;28;20263;-70
2023/03/20 11:11:45;;;;;;;5.10;4.70;;;;;;;15.45;53.12;98254.81;8380858;28;20242;-69
2023/03/20 11:15:48;;;;;;;4.47;4.17;;;;;;;15.51;53.77;98250.16;8381238;28;20249;-71
2023/03/20 11:19:52;;;;;;;5.17;4.77;;;;;;;15.36;54.11;98255.34;8380963;28;20358;-71
2023/03/20 11:23:57;;;;;;;5.30;4.90;;;;;;;15.49;53.24;98254.66;8380511;28;20513;-71
2023/03/20 11:28:19;;;;;;;5.67;5.17;;;;;;;15.35;52.96;98211.13;8380901;28;20233;-72
2023/03/20 11:32:27;;;;;;;6.50;6.00;;;;;;;15.30;53.41;98255.72;8380678;28;20443;-70
2023/03/20 11:36:32;;;;;;;6.60;6.10;;;;;;;15.53;53.12;98243.91;8380504;28;20518;-71
2023/03/20 11:40:37;;;;;;;7.43;6.73;;;;;;;15.75;52.27;98253.94;8380753;28;20228;-71
2023/03/20 11:44:40;;;;;;;18.37;5.30;;;;;;;15.79;55.46;98242.38;8380036;28;20292;-71
2023/03/20 11:48:44;;;;;;;6.43;5.80;;;;;;;15.68;53.06;98244.75;8379697;28;20233;-70
2023/03/20 11:52:47;;;;;;;6.40;5.90;;;;;;;15.60;52.72;98241.78;8379936;28;20241;-70
2023/03/20 11:56:56;;;;;;;6.27;5.77;;;;;;;15.60;51.92;98221.75;8379894;28;20234;-68
2023/03/20 12:01:01;;;;;;;6.33;5.83;;;;;;;15.79;52.62;98238.94;8379941;28;20236;-70
2023/03/20 12:05:19;;;;;;;5.53;5.13;;;;;;;15.60;52.07;98237.41;8378718;28;20421;-70
2023/03/20 12:09:27;;;;;;;5.63;5.13;;;;;;;15.79;52.08;98228.50;8379492;28;20234;-70
2023/03/20 12:13:34;;;;;;;5.93;5.43;;;;;;;15.51;53.19;98222.28;8379484;28;20229;-70
2023/03/20 12:17:46;;;;;;;5.60;5.20;;;;;;;15.86;52.03;98226.31;8379100;28;20229;-70
2023/03/20 12:21:54;;;;;;;5.47;5.07;;;;;;;15.76;52.45;98223.44;8378867;28;20234;-70
2023/03/20 12:26:01;;;;;;;4.83;4.43;;;;;;;15.68;52.70;98213.44;8378907;28;20235;-70
2023/03/20 12:30:11;;;;;;;5.97;5.47;;;;;;;15.56;52.56;98178.50;8379084;28;20231;-69
2023/03/20 12:34:17;;;;;;;5.40;4.90;;;;;;;15.68;52.61;98210.81;8379287;28;20226;-70
2023/03/20 12:38:25;;;;;;;5.17;4.70;;;;;;;15.80;52.57;98206.66;8378961;28;20227;-69
2023/03/20 12:42:37;;;;;;;5.83;5.37;;;;;;;15.58;52.95;98204.50;8378991;28;20240;-70
2023/03/20 12:46:44;;;;;;;5.50;5.10;;;;;;;15.60;52.40;98215.69;8378945;28;20263;-70
2023/03/20 12:50:50;;;;;;;5.33;4.93;;;;;;;15.43;53.13;98214.94;8378402;28;20236;-70
2023/03/20 12:55:09;;;;;;;6.00;5.50;;;;;;;15.37;53.30;98201.41;8378762;28;20238;-69
2023/03/20 12:59:17;;;;;;;5.63;5.23;;;;;;;15.34;52.79;98212.03;8379226;28;20241;-69
2023/03/20 13:03:32;;;;;;;15.63;5.43;;;;;;;15.56;53.26;98203.75;8378497;28;20240;-70
2023/03/20 13:07:46;;;;;;;6.07;5.20;;;;;;;15.47;52.91;98181.66;8378085;28;20229;-70
2023/03/20 13:11:55;;;;;;;6.80;6.00;;;;;;;15.30;54.09;98205.31;8378233;28;20238;-70
2023/03/20 13:16:07;;;;;;;6.57;5.97;;;;;;;15.54;52.63;98198.63;8381145;28;20235;-70
2023/03/20 13:20:21;;;;;;;5.27;4.87;;;;;;;15.86;52.99;98195.84;8384538;28;20544;-70
2023/03/20 13:24:33;;;;;;;5.47;4.93;;;;;;;15.47;53.06;98189.47;8384589;28;20529;-70
2023/03/20 13:28:39;;;;;;;5.33;4.53;;;;;;;15.63;53.08;98192.00;8384450;28;20235;-70
2023/03/20 13:32:51;;;;;;;5.70;5.20;;;;;;;16.30;50.61;98188.75;8382088;28;20444;-69
2023/03/20 13:37:07;;;;;;;5.83;5.27;;;;;;;15.67;52.08;98176.97;8384114;28;20320;-69
2023/03/20 13:41:25;;;;;;;5.87;5.37;;;;;;;15.64;52.61;98186.69;8383941;28;20236;-71
2023/03/20 13:45:33;;;;;;;6.07;5.57;;;;;;;15.63;52.87;98189.38;8383944;28;20236;-71
2023/03/20 13:49:37;;;;;;;6.70;6.10;;;;;;;15.30;52.80;98185.28;8383994;28;20438;-70
2023/03/20 13:53:49;;;;;;;5.80;5.13;;;;;;;15.26;53.14;98175.97;8383637;28;20227;-71
2023/03/20 13:58:11;;;;;;;6.53;5.93;;;;;;;15.14;53.63;98166.28;8382965;28;20234;-70
2023/03/20 14:02:27;;;;;;;6.43;5.83;;;;;;;15.05;53.60;98163.25;8383223;28;20286;-71
2023/03/20 14:06:49;;;;;;;6.70;6.10;;;;;;;15.01;53.69;98167.00;8382926;28;20236;-70
2023/03/20 14:11:06;;;;;;;6.67;6.07;;;;;;;15.17;53.25;98166.06;8382915;28;20330;-71
2023/03/20 14:15:12;;;;;;;6.73;6.13;;;;;;;15.21;52.74;98139.72;8383071;28;20225;-71
2023/03/20 14:19:18;;;;;;;7.03;6.30;;;;;;;15.25;52.76;98143.00;8382935;28;20224;-71
2023/03/20 14:23:30;;;;;;;6.40;5.77;;;;;;;15.54;52.89;98154.25;8382531;28;20229;-70
2023/03/20 14:27:52;;;;;;;6.00;5.50;;;;;;;15.61;52.52;98155.56;8381487;28;20236;-69
2023/03/20 14:32:03;;;;;;;6.97;6.27;;;;;;;15.53;52.31;98149.94;8382258;28;20250;-69
2023/03/20 14:36:19;;;;;;;6.93;6.33;;;;;;;15.21;53.17;98149.31;8382412;28;20526;-69
2023/03/20 14:40:24;;;;;;;7.43;6.80;;;;;;;15.55;52.88;98153.31;8382199;28;20225;-70
2023/03/20 14:44:38;;;;;;;7.50;6.80;;;;;;;15.43;52.51;98147.06;8382506;28;20265;-70
2023/03/20 14:48:44;;;;;;;8.00;7.30;;;;;;;15.45;52.72;98145.22;8381273;28;20231;-69
2023/03/20 14:52:55;;;;;;;8.10;7.33;;;;;;;15.63;51.96;98152.81;8381547;28;20236;-69
2023/03/20 14:57:09;;;;;;;7.33;6.73;;;;;;;15.38;51.51;98140.47;8381465;28;20360;-70
2023/03/20 15:01:18;;;;;;;7.97;7.20;;;;;;;15.29;52.14;98141.88;8381642;28;20221;-70
2023/03/20 15:05:25;;;;;;;7.40;6.70;;;;;;;15.27;52.51;98120.25;8381282;28;20233;-69
2023/03/20 15:09:31;;;;;;;7.90;7.20;;;;;;;15.53;52.23;98144.72;8381227;28;20430;-70
2023/03/20 15:13:34;;;;;;;7.17;6.57;;;;;;;15.23;52.19;98142.22;8381144;28;20229;-70
2023/03/20 15:17:40;;;;;;;7.47;6.77;;;;;;;15.32;52.15;98130.41;8381327;28;20224;-70
2023/03/20 15:21:46;;;;;;;7.07;6.47;;;;;;;15.36;52.06;98130.09;8380433;28;20246;-68
2023/03/20 15:25:50;;;;;;;7.70;7.00;;;;;;;15.43;51.67;98135.81;8380881;28;20240;-70
2023/03/20 15:29:54;;;;;;;8.40;7.00;;;;;;;15.64;51.73;98133.63;8380781;28;20552;-69
2023/03/20 15:33:59;;;;;;;9.10;8.20;;;;;;;15.23;52.83;98127.44;8380688;28;20547;-70
2023/03/20 15:38:05;;;;;;;8.37;7.60;;;;;;;15.54;52.12;98122.94;8380396;28;20233;-69
2023/03/20 15:42:12;;;;;;;8.33;7.53;;;;;;;14.91;52.90;98073.75;8380389;28;20228;-69
2023/03/20 15:46:15;;;;;;;7.70;7.00;;;;;;;15.37;52.36;98130.97;8378925;28;20226;-70
2023/03/20 15:50:23;;;;;;;8.13;7.33;;;;;;;15.15;52.40;98134.84;8379849;28;20298;-70
2023/03/20 15:54:26;;;;;;;7.80;7.00;;;;;;;14.98;52.48;98104.59;8379993;28;20236;-70
2023/03/20 15:58:30;;;;;;;7.37;6.77;;;;;;;15.29;51.95;98128.81;8379746;28;20234;-70
2023/03/20 16:02:35;;;;;;;6.30;5.70;;;;;;;15.07;51.74;98131.06;8380034;28;20506;-70
2023/03/20 16:06:46;;;;;;;6.70;6.10;;;;;;;15.22;51.74;98127.53;8379362;28;20240;-70
2023/03/20 16:10:51;;;;;;;13.10;10.73;;;;;;;15.29;51.77;98127.97;8379222;28;20229;-69
2023/03/20 16:14:55;;;;;;;8.93;8.03;;;;;;;15.20;51.53;98121.56;8379597;28;20492;-70
2023/03/20 16:18:57;;;;;;;8.13;7.33;;;;;;;15.18;51.53;98126.03;8379566;28;20233;-70
2023/03/20 16:23:04;;;;;;;18.17;16.27;;;;;;;15.24;51.15;98134.31;8379410;28;22943;-70
2023/03/20 16:27:08;;;;;;;14.03;12.63;;;;;;;15.22;51.02;98132.72;8379160;28;20217;-69
2023/03/20 16:31:14;;;;;;;14.07;12.73;;;;;;;15.20;50.52;98134.59;8379821;28;20232;-71
2023/03/20 16:35:20;;;;;;;11.60;10.50;;;;;;;15.13;51.02;98138.50;8378047;28;20254;-70
2023/03/20 16:39:27;;;;;;;8.80;8.00;;;;;;;14.99;50.62;98137.56;8379011;28;20232;-70
2023/03/20 16:43:32;;;;;;;7.43;6.60;;;;;;;14.95;50.84;98130.84;8379274;28;20236;-70
2023/03/20 16:47:35;;;;;;;6.17;5.00;;;;;;;15.02;50.70;98121.75;8379127;28;20228;-70
2023/03/20 16:51:38;;;;;;;7.10;6.50;;;;;;;15.04;50.80;98134.66;8382693;28;20232;-70
2023/03/20 16:55:45;;;;;;;6.73;6.13;;;;;;;15.02;50.73;98126.97;8385479;28;20232;-70
2023/03/20 16:59:50;;;;;;;6.00;5.50;;;;;;;15.04;50.99;98139.88;8385131;28;20229;-70
2023/03/20 17:03:55;;;;;;;7.67;5.00;;;;;;;14.95;50.97;98140.47;8385183;28;20229;-69
2023/03/20 17:08:05;;;;;;;5.20;4.70;;;;;;;14.92;50.81;98144.06;8385014;28;20255;-70
2023/03/20 17:12:16;;;;;;;4.87;4.40;;;;;;;14.93;50.58;98142.31;8385142;28;20229;-70
2023/03/20 17:16:21;;;;;;;6.23;4.53;;;;;;;14.87;51.26;98140.91;8384753;28;20562;-70
2023/03/20 17:20:25;;;;;;;4.33;3.93;;;;;;;14.84;51.22;98147.13;8384936;28;20574;-69
2023/03/20 17:24:28;;;;;;;4.30;3.90;;;;;;;14.74;50.76;98153.81;8384613;28;20232;-69
2023/03/20 17:28:34;;;;;;;4.37;3.97;;;;;;;14.70;51.35;98146.25;8384668;28;20232;-69
2023/03/20 17:32:37;;;;;;;4.67;4.20;;;;;;;14.61;51.66;98143.25;8384205;28;20220;-69
2023/03/20 17:36:40;;;;;;;4.93;4.50;;;;;;;14.64;51.55;98142.22;8383985;28;20551;-70
2023/03/20 17:40:43;;;;;;;4.20;3.80;;;;;;;14.59;51.78;98142.50;8383125;28;20242;-68
2023/03/20 17:44:48;;;;;;;4.80;4.40;;;;;;;14.60;51.85;98148.56;8383465;28;20524;-69
2023/03/20 17:48:51;;;;;;;4.70;4.20;;;;;;;14.47;52.18;98132.78;8383438;28;20229;-70
2023/03/20 17:52:54;;;;;;;4.70;3.87;;;;;;;14.35;52.22;98121.25;8383461;28;20228;-70
2023/03/20 17:56:57;;;;;;;4.57;4.17;;;;;;;14.43;52.46;98150.34;8383508;28;20237;-71
2023/03/20 18:01:05;;;;;;;4.33;3.97;;;;;;;14.47;52.33;98158.84;8383219;28;20528;-70
2023/03/20 18:05:09;;;;;;;4.77;4.20;;;;;;;14.31;53.80;98138.00;8383360;28;20225;-73
2023/03/20 18:09:13;;;;;;;4.63;4.20;;;;;;;14.42;52.53;98147.81;8383004;28;20233;-70
2023/03/20 18:13:17;;;;;;;6.43;5.20;;;;;;;14.20;53.09;98143.84;8383164;28;20404;-70
2023/03/20 18:17:23;;;;;;;5.13;4.63;;;;;;;14.26;52.64;98148.69;8382904;28;20229;-70
2023/03/20 18:21:26;;;;;;;4.87;4.47;;;;;;;14.31;52.53;98151.03;8382338;28;20227;-70
2023/03/20 18:25:29;;;;;;;4.77;4.27;;;;;;;14.18;53.50;98157.84;8382554;28;20225;-71
2023/03/20 18:29:32;;;;;;;5.47;4.97;;;;;;;14.17;53.12;98145.78;8382211;28;20462;-70
2023/03/20 18:33:37;;;;;;;6.50;5.87;;;;;;;14.16;53.12;98151.91;8382341;28;20222;-70
2023/03/20 18:37:40;;;;;;;10.90;9.83;;;;;;;13.99;53.06;98118.97;8382372;28;20276;-71
2023/03/20 18:41:42;;;;;;;15.67;13.90;;;;;;;14.11;53.43;98146.09;8381722;28;20233;-69
2023/03/20 18:45:46;;;;;;;14.87;12.47;;;;;;;14.18;53.22;98148.28;8381777;28;20240;-70
2023/03/20 18:49:50;;;;;;;9.97;9.07;;;;;;;14.21;53.41;98148.09;8381903;28;20295;-70
2023/03/20 18:53:52;;;;;;;7.93;7.13;;;;;;;14.15;53.60;98147.63;8381623;28;20233;-70
2023/03/20 18:57:55;;;;;;;7.27;6.50;;;;;;;14.17;53.04;98146.59;8380925;28;20232;-71
2023/03/20 19:01:58;;;;;;;6.77;6.17;;;;;;;14.18;53.14;98147.44;8381444;28;20399;-72
2023/03/20 19:06:04;;;;;;;7.00;5.77;;;;;;;14.13;53.86;98152.91;8380814;28;20233;-71
2023/03/20 19:10:23;;;;;;;7.20;6.50;;;;;;;14.09;53.37;98151.41;8381032;28;20239;-71
2023/03/20 19:14:26;;;;;;;10.17;9.07;;;;;;;14.13;53.50;98160.72;8380467;28;20239;-71
2023/03/20 19:18:29;;;;;;;11.03;9.00;;;;;;;14.06;53.87;98156.78;8380434;28;20225;-70